Warning: Javascript must be enabled to use all the features on this page!


Page Loading - Please Wait...

Click to hideNews Bulletins
Click to hide state-specific text

Explore Real-time Water Data Using New Products from USGS TXWSC

View over 750 USGS real-time stream, lake, reservoir, precipitation, and groundwater stations in context with current weather and hazard conditions on both desktop and mobile devices.

Click to go to the Texas Water Dashboard Click to go to the WATER On-the-go app

Follow @USGS_TexasFlood and @USGS_TexasRain on Twitter to get current water level and precipitation data during flooding or severe rainfall events.


USGS 08195000 Frio Rv at Concan, TX

PROVISIONAL DATA SUBJECT TO REVISION

Click to hidestation-specific text
Funding for this site is provided by the cooperators / programs below:
Click to go to the Edwards Aquifer Authority web page

Edwards Aquifer Authority

Click to go to the Cooperative Matching Funds web page

Cooperative Matching Funds

 

Rainfall Disclaimer


retransmission, forecasts and summary of this location by the National Weather Service
Retransmission, forecasts and summary by the National Weather Service

National Weather Service provided floatability levels for recreational users at several locations throughout Texas.

This station managed by the San Antonio Field Unit.

Available Parameters Available Period
All 6 Available Parameters for this site
  
00010 Temperature, water 2013-07-25  2017-10-17
00045 Precipitation 2017-06-19  2017-10-17
00060 Discharge 1991-10-01  2017-10-17
00065 Gage height 2007-10-01  2017-10-17
00095 Specific cond at 25C 2013-07-02  2017-10-17
99133 NO3+NO2,water,insitu 2015-09-24  2017-10-17

Graph
Graph w/ stats
Graph w/o stats
Graph w/ (up to 3) parms
Table
Tab-separated
Days  (2)
 

  -- or --
Begin date
 

End date
 

Summary of all available data for this site
Instantaneous-data availability statement






Date / Time




Gage
height,
feet,




Dis-
charge,
ft3/s,



Precip-
itation
total,
inches,
Specif-
ic
conduc-
tance,
wat unf
uS/cm @
25 degC,



Temper-
ature,
water,
deg C,

Nitrate
+
nitrite
water,
in situ
mg/L as,
10/15/2017 00:00 CDT3.65P  53.7P  0.00P  479P  25.0P  0.40P  
10/15/2017 00:15 CDT3.66P  55.6P  0.00P  479P  25.0P     
10/15/2017 00:30 CDT3.66P  55.6P  0.00P  479P  25.0P     
10/15/2017 00:45 CDT3.65P  53.7P  0.00P  479P  25.0P     
10/15/2017 01:00 CDT3.65P  53.7P  0.00P  479P  24.9P  0.40P  
10/15/2017 01:15 CDT3.66P  55.6P  0.00P  479P  24.9P     
10/15/2017 01:30 CDT3.66P  55.6P  0.00P  479P  24.9P     
10/15/2017 01:45 CDT3.65P  53.7P  0.00P  479P  24.9P     
10/15/2017 02:00 CDT3.66P  55.6P  0.00P  479P  24.9P  0.40P  
10/15/2017 02:15 CDT3.65P  53.7P  0.00P  479P  24.8P     
10/15/2017 02:30 CDT3.65P  53.7P  0.00P  479P  24.8P     
10/15/2017 02:45 CDT3.66P  55.6P  0.00P  479P  24.8P     
10/15/2017 03:00 CDT3.65P  53.7P  0.00P  478P  24.7P  0.40P  
10/15/2017 03:15 CDT3.65P  53.7P  0.00P  478P  24.7P     
10/15/2017 03:30 CDT3.66P  55.6P  0.00P  478P  24.7P     
10/15/2017 03:45 CDT3.66P  55.6P  0.00P  478P  24.6P     
10/15/2017 04:00 CDT3.66P  55.6P  0.00P  478P  24.6P  0.40P  
10/15/2017 04:15 CDT3.66P  55.6P  0.00P  478P  24.5P     
10/15/2017 04:30 CDT3.66P  55.6P  0.00P  478P  24.5P     
10/15/2017 04:45 CDT3.66P  55.6P  0.00P  478P  24.4P     
10/15/2017 05:00 CDT3.66P  55.6P  0.00P  477P  24.4P  0.40P  
10/15/2017 05:15 CDT3.66P  55.6P  0.00P  477P  24.4P     
10/15/2017 05:30 CDT3.66P  55.6P  0.00P  478P  24.3P     
10/15/2017 05:45 CDT3.66P  55.6P  0.00P  477P  24.3P     
10/15/2017 06:00 CDT3.65P  53.7P  0.00P  477P  24.2P  0.40P  
10/15/2017 06:15 CDT3.66P  55.6P  0.00P  477P  24.2P     
10/15/2017 06:30 CDT3.66P  55.6P  0.00P  477P  24.2P     
10/15/2017 06:45 CDT3.66P  55.6P  0.00P  477P  24.1P     
10/15/2017 07:00 CDT3.65P  53.7P  0.00P  477P  24.1P  0.40P  
10/15/2017 07:15 CDT3.66P  55.6P  0.00P  477P  24.1P     
10/15/2017 07:30 CDT3.66P  55.6P  0.00P  477P  24.0P     
10/15/2017 07:45 CDT3.66P  55.6P  0.00P  477P  24.0P     
10/15/2017 08:00 CDT3.66P  55.6P  0.00P  477P  24.0P  0.40P  
10/15/2017 08:15 CDT3.65P  53.7P  0.00P  477P  24.0P     
10/15/2017 08:30 CDT3.66P  55.6P  0.00P  477P  24.0P     
10/15/2017 08:45 CDT3.65P  53.7P  0.00P  477P  23.9P     
10/15/2017 09:00 CDT3.66P  55.6P  0.00P  477P  23.9P  0.40P  
10/15/2017 09:15 CDT3.66P  55.6P  0.00P  477P  23.9P     
10/15/2017 09:30 CDT3.65P  53.7P  0.00P  477P  23.9P     
10/15/2017 09:45 CDT3.65P  53.7P  0.00P  477P  23.9P     
10/15/2017 10:00 CDT3.65P  53.7P  0.00P  477P  23.9P  0.40P  
10/15/2017 10:15 CDT3.66P  55.6P  0.00P  477P  23.9P     
10/15/2017 10:30 CDT3.64P  51.9P  0.00P  477P  24.0P     
10/15/2017 10:45 CDT3.65P  53.7P  0.00P  477P  24.0P     
10/15/2017 11:00 CDT3.66P  55.6P  0.00P  477P  24.1P  0.40P  
10/15/2017 11:15 CDT3.65P  53.7P  0.00P  477P  24.2P     
10/15/2017 11:30 CDT3.65P  53.7P  0.00P  477P  24.2P     
10/15/2017 11:45 CDT3.65P  53.7P  0.00P  477P  24.3P     
10/15/2017 12:00 CDT3.65P  53.7P  0.00P  477P  24.3P  0.39P  
10/15/2017 12:15 CDT3.66P  55.6P  0.00P  477P  24.4P     
10/15/2017 12:30 CDT3.65P  53.7P  0.00P  477P  24.4P     
10/15/2017 12:45 CDT3.65P  53.7P  0.00P  477P  24.4P     
10/15/2017 13:00 CDT3.65P  53.7P  0.00P  477P  24.4P  0.39P  
10/15/2017 13:15 CDT3.65P  53.7P  0.00P  477P  24.4P     
10/15/2017 13:30 CDT3.63P  50.0P  0.00P  477P  24.5P     
10/15/2017 13:45 CDT3.66P  55.6P  0.00P  477P  24.5P     
10/15/2017 14:00 CDT      0.00P  477P  24.6P  0.39P  
10/15/2017 14:15 CDT3.65P  53.7P  0.00P  477P  24.6P     
10/15/2017 14:30 CDT3.64P  51.9P  0.00P  477P  24.7P     
10/15/2017 14:45 CDT3.65P  53.7P  0.00P  477P  24.8P     
10/15/2017 15:00 CDT3.65P  53.7P  0.00P  477P  24.8P  0.39P  
10/15/2017 15:15 CDT3.63P  50.0P  0.00P  477P  24.9P     
10/15/2017 15:30 CDT3.65P  53.7P  0.00P  477P  24.9P     
10/15/2017 15:45 CDT3.65P  53.7P  0.00P  477P  24.9P     
10/15/2017 16:00 CDT3.64P  51.9P  0.00P  477P  25.0P  0.39P  
10/15/2017 16:15 CDT3.65P  53.7P  0.00P  477P  25.0P     
10/15/2017 16:30 CDT3.65P  53.7P  0.00P  477P  25.1P     
10/15/2017 16:45 CDT3.65P  53.7P  0.00P  478P  25.1P     
10/15/2017 17:00 CDT3.64P  51.9P  0.00P  477P  25.2P  0.39P  
10/15/2017 17:15 CDT3.66P  55.6P  0.00P  477P  25.2P     
10/15/2017 17:30 CDT3.64P  51.9P  0.00P  477P  25.2P     
10/15/2017 17:45 CDT3.65P  53.7P  0.00P  477P  25.2P     
10/15/2017 18:00 CDT3.65P  53.7P  0.00P  477P  25.1P  0.38P  
10/15/2017 18:15 CDT3.64P  51.9P  0.00P  477P  25.1P     
10/15/2017 18:30 CDT3.65P  53.7P  0.00P  477P  25.1P     
10/15/2017 18:45 CDT3.65P  53.7P  0.00P  477P  25.0P     
10/15/2017 19:00 CDT3.64P  51.9P  0.00P  477P  24.9P  0.38P  
10/15/2017 19:15 CDT3.65P  53.7P  0.00P  476P  24.9P     
10/15/2017 19:30 CDT3.64P  51.9P  0.00P  476P  24.8P     
10/15/2017 19:45 CDT3.64P  51.9P  0.00P  476P  24.7P     
10/15/2017 20:00 CDT3.65P  53.7P  0.00P  476P  24.6P  0.39P  
10/15/2017 20:15 CDT3.64P  51.9P  0.00P  476P  24.6P     
10/15/2017 20:30 CDT3.64P  51.9P  0.00P  476P  24.5P     
10/15/2017 20:45 CDT3.64P  51.9P  0.00P  476P  24.4P     
10/15/2017 21:00 CDT3.64P  51.9P  0.00P  476P  24.3P  0.39P  
10/15/2017 21:15 CDT3.65P  53.7P  0.00P  475P  24.3P     
10/15/2017 21:30 CDT3.65P  53.7P  0.00P  475P  24.2P     
10/15/2017 21:45 CDT3.66P  55.6P  0.00P  475P  24.1P     
10/15/2017 22:00 CDT3.65P  53.7P  0.00P  475P  24.1P  0.39P  
10/15/2017 22:15 CDT3.64P  51.9P  0.00P  475P  24.0P     
10/15/2017 22:30 CDT3.65P  53.7P  0.00P  475P  23.9P     
10/15/2017 22:45 CDT3.65P  53.7P  0.00P  475P  23.8P     
10/15/2017 23:00 CDT3.65P  53.7P  0.00P  475P  23.8P  0.38P  
10/15/2017 23:15 CDT3.64P  51.9P  0.00P  475P  23.7P     
10/15/2017 23:30 CDT3.64P  51.9P  0.00P  475P  23.6P     
10/15/2017 23:45 CDT3.64P  51.9P  0.00P  475P  23.5P     
10/16/2017 00:00 CDT3.63P  50.0P  0.00P  475P  23.4P  0.38P  
10/16/2017 00:15 CDT3.63P  50.0P  0.00P  475P  23.4P     
10/16/2017 00:30 CDT3.64P  51.9P  0.00P  474P  23.3P     
10/16/2017 00:45 CDT3.64P  51.9P  0.00P  474P  23.2P     
10/16/2017 01:00 CDT3.64P  51.9P  0.00P  474P  23.1P  0.38P  
10/16/2017 01:15 CDT3.64P  51.9P  0.00P  474P  23.0P     
10/16/2017 01:30 CDT3.65P  53.7P  0.00P  473P  23.0P     
10/16/2017 01:45 CDT3.64P  51.9P  0.00P  473P  22.9P     
10/16/2017 02:00 CDT3.64P  51.9P  0.00P  473P  22.8P  0.38P  
10/16/2017 02:15 CDT3.65P  53.7P  0.00P  473P  22.7P     
10/16/2017 02:30 CDT3.64P  51.9P  0.00P  473P  22.6P     
10/16/2017 02:45 CDT3.64P  51.9P  0.00P  472P  22.5P     
10/16/2017 03:00 CDT3.64P  51.9P  0.00P  472P  22.4P  0.38P  
10/16/2017 03:15 CDT3.65P  53.7P  0.00P  472P  22.3P     
10/16/2017 03:30 CDT3.64P  51.9P  0.00P  472P  22.2P     
10/16/2017 03:45 CDT3.64P  51.9P  0.00P  472P  22.1P     
10/16/2017 04:00 CDT3.65P  53.7P  0.00P  471P  22.0P  0.38P  
10/16/2017 04:15 CDT3.64P  51.9P  0.00P  471P  22.0P     
10/16/2017 04:30 CDT3.65P  53.7P  0.00P  471P  21.9P     
10/16/2017 04:45 CDT3.64P  51.9P  0.00P  471P  21.8P     
10/16/2017 05:00 CDT3.64P  51.9P  0.00P  471P  21.7P  0.38P  
10/16/2017 05:15 CDT3.65P  53.7P  0.00P  471P  21.6P     
10/16/2017 05:30 CDT3.64P  51.9P  0.00P  470P  21.5P     
10/16/2017 05:45 CDT3.65P  53.7P  0.00P  470P  21.5P     
10/16/2017 06:00 CDT3.65P  53.7P  0.00P  470P  21.4P  0.38P  
10/16/2017 06:15 CDT3.65P  53.7P  0.00P  470P  21.3P     
10/16/2017 06:30 CDT3.65P  53.7P  0.00P  470P  21.2P     
10/16/2017 06:45 CDT3.64P  51.9P  0.00P  470P  21.2P     
10/16/2017 07:00 CDT3.64P  51.9P  0.00P  470P  21.1P  0.38P  
10/16/2017 07:15 CDT3.64P  51.9P  0.00P  469P  21.0P     
10/16/2017 07:30 CDT3.64P  51.9P  0.00P  469P  21.0P     
10/16/2017 07:45 CDT3.65P  53.7P  0.00P  469P  20.9P     
10/16/2017 08:00 CDT3.64P  51.9P  0.00P  469P  20.8P  0.38P  
10/16/2017 08:15 CDT3.64P  51.9P  0.00P  469P  20.8P     
10/16/2017 08:30 CDT3.64P  51.9P  0.00P  469P  20.7P     
10/16/2017 08:45 CDT3.64P  51.9P  0.00P  469P  20.6P     
10/16/2017 09:00 CDT3.65P  53.7P  0.00P  469P  20.6P  0.38P  
10/16/2017 09:15 CDT3.64P  51.9P  0.00P  469P  20.6P     
10/16/2017 09:30 CDT3.64P  51.9P  0.00P  469P  20.6P     
10/16/2017 09:45 CDT3.64P  51.9P  0.00P  469P  20.6P     
10/16/2017 10:00 CDT3.65P  53.7P  0.00P  470P  20.6P  0.39P  
10/16/2017 10:15 CDT3.64P  51.9P  0.00P  470P  20.6P     
10/16/2017 10:30 CDT3.63P  50.0P  0.00P  470P  20.7P     
10/16/2017 10:45 CDT3.64P  51.9P  0.00P  470P  20.7P     
10/16/2017 11:00 CDT3.64P  51.9P  0.00P  470P  20.8P  0.39P  
10/16/2017 11:15 CDT3.64P  51.9P  0.00P  470P  20.8P     
10/16/2017 11:30 CDT3.64P  51.9P  0.00P  471P  20.9P     
10/16/2017 11:45 CDT3.63P  50.0P  0.00P  471P  21.0P     
10/16/2017 12:00 CDT3.63P  50.0P  0.00P  470P  21.1P  0.38P  
10/16/2017 12:15 CDT3.62P  48.3P  0.00P  471P  21.2P     
10/16/2017 12:30 CDT3.64P  51.9P  0.00P  471P  21.2P     
10/16/2017 12:45 CDT3.62P  48.3P  0.00P  471P  21.4P     
10/16/2017 13:00 CDT3.65P  53.7P  0.00P  472P  21.5P  0.38P  
10/16/2017 13:15 CDT3.65P  53.7P  0.00P  471P  21.6P     
10/16/2017 13:30 CDT3.65P  53.7P  0.00P  471P  21.8P     
10/16/2017 13:45 CDT3.63P  50.0P  0.00P  472P  21.9P     
10/16/2017 14:00 CDT      0.00P  472P  22.0P  0.38P  
10/16/2017 14:15 CDT3.64P  51.9P  0.00P  472P  22.1P     
10/16/2017 14:30 CDT3.62P  48.3P  0.00P  472P  22.3P     
10/16/2017 14:45 CDT3.62P  48.3P  0.00P  473P  22.4P     
10/16/2017 15:00 CDT3.63P  50.0P  0.00P  472P  22.5P  0.38P  
10/16/2017 15:15 CDT3.64P  51.9P  0.00P  472P  22.6P     
10/16/2017 15:30 CDT3.62P  48.3P  0.00P  473P  22.7P     
10/16/2017 15:45 CDT3.63P  50.0P  0.00P  473P  22.8P     
10/16/2017 16:00 CDT3.64P  51.9P  0.00P  473P  22.9P  0.38P  
10/16/2017 16:15 CDT3.64P  51.9P  0.00P  473P  23.0P     
10/16/2017 16:30 CDT3.63P  50.0P  0.00P  473P  23.0P     
10/16/2017 16:45 CDT3.64P  51.9P  0.00P  473P  23.1P     
10/16/2017 17:00 CDT3.63P  50.0P  0.00P  473P  23.1P  0.38P  
10/16/2017 17:15 CDT3.63P  50.0P  0.00P  473P  23.1P     
10/16/2017 17:30 CDT3.64P  51.9P  0.00P  473P  23.1P     
10/16/2017 17:45 CDT3.65P  53.7P  0.00P  473P  23.0P     
10/16/2017 18:00 CDT3.64P  51.9P  0.00P  473P  23.0P  0.38P  
10/16/2017 18:15 CDT3.64P  51.9P  0.00P  473P  22.9P     
10/16/2017 18:30 CDT3.64P  51.9P  0.00P  472P  22.8P     
10/16/2017 18:45 CDT3.65P  53.7P  0.00P  472P  22.7P     
10/16/2017 19:00 CDT3.64P  51.9P  0.00P  472P  22.7P  0.38P  
10/16/2017 19:15 CDT3.64P  51.9P  0.00P  472P  22.6P     
10/16/2017 19:30 CDT3.64P  51.9P  0.00P  472P  22.5P     
10/16/2017 19:45 CDT3.64P  51.9P  0.00P  472P  22.4P     
10/16/2017 20:00 CDT3.64P  51.9P  0.00P  472P  22.4P  0.39P  
10/16/2017 20:15 CDT3.64P  51.9P  0.00P  472P  22.3P     
10/16/2017 20:30 CDT3.64P  51.9P  0.00P  472P  22.2P     
10/16/2017 20:45 CDT3.64P  51.9P  0.00P  472P  22.2P     
10/16/2017 21:00 CDT3.65P  53.7P  0.00P  472P  22.1P  0.39P  
10/16/2017 21:15 CDT3.64P  51.9P  0.00P  472P  22.0P     
10/16/2017 21:30 CDT3.64P  51.9P  0.00P  472P  21.9P     
10/16/2017 21:45 CDT3.64P  51.9P  0.00P  472P  21.9P     
10/16/2017 22:00 CDT3.64P  51.9P  0.00P  472P  21.8P  0.38P  
10/16/2017 22:15 CDT3.64P  51.9P  0.00P  472P  21.8P     
10/16/2017 22:30 CDT3.64P  51.9P  0.00P  472P  21.7P     
10/16/2017 22:45 CDT3.64P  51.9P  0.00P  471P  21.7P     
10/16/2017 23:00 CDT3.63P  50.0P  0.00P  472P  21.6P  0.38P  
10/16/2017 23:15 CDT3.64P  51.9P  0.00P  472P  21.6P     
10/16/2017 23:30 CDT3.64P  51.9P  0.00P  471P  21.6P     
10/16/2017 23:45 CDT3.64P  51.9P  0.00P  471P  21.5P     
10/17/2017 00:00 CDT3.63P  50.0P  0.00P  472P  21.5P  0.38P  
10/17/2017 00:15 CDT3.64P  51.9P  0.00P  472P  21.4P     
10/17/2017 00:30 CDT3.64P  51.9P  0.00P  471P  21.4P     
10/17/2017 00:45 CDT3.64P  51.9P  0.00P  471P  21.3P     
10/17/2017 01:00 CDT3.63P  50.0P  0.00P  471P  21.3P  0.37P  
10/17/2017 01:15 CDT3.65P  53.7P  0.00P  471P  21.2P     
10/17/2017 01:30 CDT3.64P  51.9P  0.00P  471P  21.2P     
10/17/2017 01:45 CDT3.63P  50.0P  0.00P  471P  21.1P     
10/17/2017 02:00 CDT3.64P  51.9P  0.00P  471P  21.0P  0.37P  
10/17/2017 02:15 CDT3.64P  51.9P  0.00P  471P  21.0P     
10/17/2017 02:30 CDT3.64P  51.9P  0.00P  471P  20.9P     
10/17/2017 02:45 CDT3.63P  50.0P  0.00P  471P  20.8P     
10/17/2017 03:00 CDT3.62P  48.3P  0.00P  471P  20.7P  0.37P  
10/17/2017 03:15 CDT3.63P  50.0P  0.00P  470P  20.6P     
10/17/2017 03:30 CDT3.63P  50.0P  0.00P  470P  20.6P     
10/17/2017 03:45 CDT3.64P  51.9P  0.00P  470P  20.5P     
10/17/2017 04:00 CDT3.64P  51.9P  0.00P  470P  20.4P  0.37P  
10/17/2017 04:15 CDT3.65P  53.7P  0.00P  470P  20.3P     
10/17/2017 04:30 CDT3.64P  51.9P  0.00P  470P  20.2P     
10/17/2017 04:45 CDT3.64P  51.9P  0.00P  470P  20.1P     
10/17/2017 05:00 CDT3.64P  51.9P  0.00P  470P  20.0P  0.37P  
10/17/2017 05:15 CDT3.64P  51.9P  0.00P  469P  19.8P     
10/17/2017 05:30 CDT3.64P  51.9P  0.00P  469P  19.7P     
10/17/2017 05:45 CDT3.63P  50.0P  0.00P  469P  19.6P     
10/17/2017 06:00 CDT3.64P  51.9P  0.00P  469P  19.6P  0.38P  
10/17/2017 06:15 CDT3.63P  50.0P  0.00P  469P  19.4P     
10/17/2017 06:30 CDT3.63P  50.0P  0.00P  469P  19.4P     
10/17/2017 06:45 CDT3.64P  51.9P  0.00P  469P  19.3P     
10/17/2017 07:00 CDT3.64P  51.9P  0.00P  469P  19.2P  0.38P  
10/17/2017 07:15 CDT3.63P  50.0P  0.00P  469P  19.1P     
10/17/2017 07:30 CDT3.64P  51.9P  0.00P  469P  19.0P     
10/17/2017 07:45 CDT3.63P  50.0P  0.00P  468P  18.9P     
10/17/2017 08:00 CDT3.63P  50.0P  0.00P  468P  18.8P  0.38P  
10/17/2017 08:15 CDT3.64P  51.9P  0.00P  468P  18.7P     
10/17/2017 08:30 CDT3.65P  53.7P  0.00P  468P  18.6P     
10/17/2017 08:45 CDT3.64P  51.9P  0.00P  468P  18.5P     
10/17/2017 09:00 CDT3.64P  51.9P  0.00P  469P  18.5P  0.38P  
10/17/2017 09:15 CDT3.63P  50.0P  0.00P  468P  18.4P     
10/17/2017 09:30 CDT3.63P  50.0P  0.00P  469P  18.4P     
10/17/2017 09:45 CDT3.65P  53.7P  0.00P  469P  18.4P     
10/17/2017 10:00 CDT3.63P  50.0P  0.00P  469P  18.4P  0.38P  
10/17/2017 10:15 CDT3.64P  51.9P  0.00P  469P  18.4P     
10/17/2017 10:30 CDT3.63P  50.0P  0.00P  469P  18.5P     
10/17/2017 10:45 CDT3.64P  51.9P  0.00P  470P  18.6P     
10/17/2017 11:00 CDT3.63P  50.0P  0.00P  470P  18.6P  0.38P  
10/17/2017 11:15 CDT3.64P  51.9P  0.00P  470P  18.8P     
10/17/2017 11:30 CDT3.65P  53.7P  0.00P  470P  18.9P     
10/17/2017 11:45 CDT3.63P  50.0P  0.00P  470P  19.0P     
10/17/2017 12:00 CDT3.63P  50.0P  0.00P  471P  19.1P  0.38P  
10/17/2017 12:15 CDT3.64P  51.9P  0.00P  471P  19.2P     
10/17/2017 12:30 CDT3.65P  53.7P  0.00P  471P  19.3P     
10/17/2017 12:45 CDT3.63P  50.0P  0.00P  471P  19.5P     
10/17/2017 13:00 CDT3.63P  50.0P  0.00P  472P  19.6P  0.38P  
10/17/2017 13:15 CDT3.64P  51.9P  0.00P  472P  19.8P     
10/17/2017 13:30 CDT3.64P  51.9P  0.00P  472P  20.0P     
10/17/2017 13:45 CDT3.63P  50.0P  0.00P  472P  20.2P     
10/17/2017 14:00 CDT      0.00P  472P  20.3P  0.37P  
10/17/2017 14:15 CDT3.64P  51.9P  0.00P  473P  20.5P     
10/17/2017 14:30 CDT3.64P  51.9P  0.00P  473P  20.6P     
10/17/2017 14:45 CDT3.63P  50.0P  0.00P  473P  20.8P     
10/17/2017 15:00 CDT3.63P  50.0P  0.00P  472P  21.0P  0.37P  
10/17/2017 15:15 CDT3.63P  50.0P  0.00P  473P  21.1P     
10/17/2017 15:30 CDT3.65P  53.7P  0.00P  472P  21.2P     
10/17/2017 15:45 CDT3.64P  51.9P  0.00P  472P  21.4P     
10/17/2017 16:00 CDT3.64P  51.9P  0.00P  472P  21.4P  0.37P  
10/17/2017 16:15 CDT3.65P  53.7P  0.00P  471P  21.5P     
10/17/2017 16:30 CDT3.63P  50.0P  0.00P  471P  21.6P     

Explanation
  P  Provisional data subject to revision.